Cradley Heath, United Kingdom
Current Conditions -  °F | °C
As of 11:20 PM on Saturday 22 Nov 2014 (Local Time) from EGBB Reporting Station
Broken Clouds Broken Clouds  
Wind Chill: 48°   Ceiling: 3500
Heat Index: 48°   Visibility: 6mi
Dew Point: 48°   Wind: 3mph
Humidity: 100%   Direction: 280°W
Pressure: 29.97"   Gusts: NA
Location:  52.47°N, 2.09°W
Report Text: EGBB 222320Z 28003KT 9999 BKN035 BKN041 09/09 Q1015
Loading
Personal Weather Stations






























Interactive Weather Map New forecast layout! Learn more

10-Day Weather Forecast

Advertisements
Track Severe Weather on mobile